メインページ
METAR-TAF:

METAR-TAF

空港 :

Powell River, ブリティッシュコロンビア州, カナダ

緯度: 49-50N, 経度: 124-30W, 海抜: 130m

現時点の気象観測

当レポートは1時間8分前の17:00(UTC)に作成
東/南東の風 12kt、最大21ktの突風を伴う
気温 10°C
湿度 100%
気圧 1014 hPa
視程: 24.1km
高度500ftの千切れ雲あり
高度2700ftの千切れ雲あり
高度8000ftの千切れ雲あり

METAR: CYPW 171700Z 11012G21KT 15SM BKN005 BKN027 BKN080 10/10 A2995 RMK SF5SC1AC1 VIS N-E 2 LO CLD BR SLP146

時間: 10:08 (18:08 UTC)


TAF: 見つかりません

4,000以上の空港の気象観測と天気予報(METAR報とTAF報)

利用可能な観測所は地図上に黄色い丸と赤い丸で示す。

丸の上にカーソルを重ねると観測所名を参照できる。

次にクリックすると気象観測と天気予報を参照できる。

マップの切り替え:黒色「×」印の緑ボタンをクリックして拡大、「-」印の緑ボタンをクリックして縮小、緑色の三角印をクリックして隣りの地図に切り替え


METAR-TAF: